createdAt,value
2022-12-28T00:01:07.451Z,6.8
2022-12-28T00:02:15.809Z,6.8
2022-12-28T00:03:24.210Z,6.8
2022-12-28T00:04:32.682Z,6.2
2022-12-28T00:05:41.033Z,6.2
2022-12-28T00:06:49.398Z,6.2
2022-12-28T00:07:57.904Z,9.2
2022-12-28T00:09:06.237Z,9.2
2022-12-28T00:10:14.593Z,9.2
2022-12-28T00:11:26.526Z,5.5
2022-12-28T00:12:31.500Z,5.5
2022-12-28T00:13:39.834Z,5.5
2022-12-28T00:14:48.387Z,8.7
2022-12-28T00:15:56.768Z,8.7
2022-12-28T00:17:05.066Z,8.7
2022-12-28T00:18:13.614Z,8
2022-12-28T00:19:21.948Z,8
2022-12-28T00:20:30.281Z,8
2022-12-28T00:21:38.844Z,8.9
2022-12-28T00:22:47.260Z,8.9
2022-12-28T00:23:57.098Z,8.9
2022-12-28T00:25:04.128Z,10.9
2022-12-28T00:26:12.465Z,10.9
2022-12-28T00:27:20.783Z,10.9
2022-12-28T00:28:29.324Z,10.3
2022-12-28T00:29:37.692Z,10.3
2022-12-28T00:30:46.037Z,10.3
2022-12-28T00:31:54.689Z,10
2022-12-28T00:33:02.932Z,10
2022-12-28T00:34:11.268Z,10
2022-12-28T00:35:19.822Z,7
2022-12-28T00:37:07.825Z,7
2022-12-28T00:37:36.509Z,7
2022-12-28T00:38:45.085Z,8.6
2022-12-28T00:39:53.397Z,8.6
2022-12-28T00:41:01.736Z,8.6
2022-12-28T00:42:10.308Z,5.8
2022-12-28T00:43:18.649Z,5.8
2022-12-28T00:44:26.975Z,5.8
2022-12-28T00:45:35.589Z,9.5
2022-12-28T00:46:43.893Z,9.5
2022-12-28T00:47:52.235Z,9.5
2022-12-28T00:49:00.774Z,8
2022-12-28T00:50:09.124Z,8
2022-12-28T00:51:17.465Z,8
2022-12-28T00:52:26.005Z,8.4
2022-12-28T00:53:34.315Z,8.4
2022-12-28T00:54:42.675Z,8.4
2022-12-28T00:55:51.199Z,10.7
2022-12-28T00:56:59.525Z,10.7
2022-12-28T00:58:07.849Z,10.7
2022-12-28T00:59:16.402Z,6.8
2022-12-28T01:00:24.746Z,6.8
2022-12-28T01:01:33.160Z,6.8
2022-12-28T01:02:41.695Z,8.9
2022-12-28T01:03:49.980Z,8.9
2022-12-28T01:04:58.298Z,8.9
2022-12-28T01:06:06.854Z,8
2022-12-28T01:07:15.180Z,8
2022-12-28T01:08:23.526Z,8
2022-12-28T01:09:32.083Z,7.5
2022-12-28T01:10:40.459Z,7.5
2022-12-28T01:11:48.784Z,7.5
2022-12-28T01:12:57.300Z,7.1
2022-12-28T01:14:05.622Z,7.1
2022-12-28T01:15:13.978Z,7.1
2022-12-28T01:16:22.547Z,11.2
2022-12-28T01:17:30.844Z,11.2
2022-12-28T01:18:39.164Z,11.2
2022-12-28T01:19:53.691Z,5.8
2022-12-28T01:20:56.032Z,5.8
2022-12-28T01:22:04.355Z,5.8
2022-12-28T01:23:12.902Z,6.9
2022-12-28T01:24:21.234Z,6.9
2022-12-28T01:25:29.554Z,6.9
2022-12-28T01:26:38.124Z,6.8
2022-12-28T01:27:46.439Z,6.8
2022-12-28T01:28:54.793Z,6.8
2022-12-28T01:30:03.328Z,9
2022-12-28T01:31:11.630Z,9
2022-12-28T01:32:19.970Z,9
2022-12-28T01:33:28.512Z,8
2022-12-28T01:34:36.852Z,8
2022-12-28T01:35:45.194Z,8
2022-12-28T01:36:53.713Z,7.4
2022-12-28T01:38:02.050Z,7.4
2022-12-28T01:39:10.401Z,7.4
2022-12-28T01:40:18.938Z,7.7
2022-12-28T01:41:27.270Z,7.7
2022-12-28T01:42:35.636Z,7.7
2022-12-28T01:43:44.182Z,9.9
2022-12-28T01:44:52.511Z,9.9
2022-12-28T01:46:00.891Z,9.9
2022-12-28T01:47:09.397Z,6.5
2022-12-28T01:48:17.726Z,6.5
2022-12-28T01:49:26.067Z,6.5
2022-12-28T01:50:34.633Z,5.8
2022-12-28T01:51:42.962Z,5.8
2022-12-28T01:52:51.296Z,5.8
2022-12-28T01:53:59.846Z,6.8
2022-12-28T01:55:08.177Z,6.8
2022-12-28T01:56:16.518Z,6.8
2022-12-28T01:57:25.062Z,7.1
2022-12-28T01:58:33.408Z,7.1
2022-12-28T01:59:41.723Z,7.1
2022-12-28T02:00:50.326Z,5.1
2022-12-28T02:01:58.763Z,5.1
2022-12-28T02:03:07.019Z,5.1
2022-12-28T02:04:15.496Z,8.2
2022-12-28T02:05:23.830Z,8.2
2022-12-28T02:06:32.170Z,8.2
2022-12-28T02:07:40.717Z,6.9
2022-12-28T02:08:49.052Z,6.9
2022-12-28T02:10:41.857Z,6.9
2022-12-28T02:11:05.934Z,6
2022-12-28T02:12:14.266Z,6
2022-12-28T02:13:22.605Z,6
2022-12-28T02:14:31.187Z,7.9
2022-12-28T02:15:39.527Z,7.9
2022-12-28T02:16:47.887Z,7.9
2022-12-28T02:17:56.396Z,5.5
2022-12-28T02:19:04.766Z,5.5
2022-12-28T02:20:13.104Z,5.5
2022-12-28T02:21:21.659Z,6
2022-12-28T02:22:29.985Z,6
2022-12-28T02:23:38.322Z,6
2022-12-28T02:24:46.855Z,6.1
2022-12-28T02:25:55.191Z,6.1
2022-12-28T02:27:03.511Z,6.1
2022-12-28T02:28:12.062Z,7.1
2022-12-28T02:29:20.393Z,7.1
2022-12-28T02:30:28.788Z,7.1
2022-12-28T02:31:37.287Z,7.1
2022-12-28T02:32:45.626Z,7.1
2022-12-28T02:33:53.943Z,7.1
2022-12-28T02:35:02.493Z,8
2022-12-28T02:36:16.303Z,8
2022-12-28T02:37:19.165Z,8
2022-12-28T02:38:27.693Z,6.4
2022-12-28T02:39:36.041Z,6.4
2022-12-28T02:40:44.400Z,6.4
2022-12-28T02:41:52.934Z,7
2022-12-28T02:43:01.251Z,7
2022-12-28T02:44:09.567Z,7
2022-12-28T02:45:18.130Z,5.4
2022-12-28T02:46:26.513Z,5.4
2022-12-28T02:47:34.805Z,5.4
2022-12-28T02:48:43.386Z,5.8
2022-12-28T02:49:51.706Z,5.8
2022-12-28T02:51:00.029Z,5.8
2022-12-28T02:52:08.572Z,7.3
2022-12-28T02:53:16.921Z,7.3
2022-12-28T02:54:25.249Z,7.3
2022-12-28T02:55:33.785Z,6.4
2022-12-28T02:56:42.178Z,6.4
2022-12-28T02:57:50.516Z,6.4
2022-12-28T02:58:59.069Z,5.9
2022-12-28T03:00:07.421Z,5.9
2022-12-28T03:01:15.834Z,5.9
2022-12-28T03:02:24.479Z,6.2
2022-12-28T03:03:32.618Z,6.2
2022-12-28T03:04:40.982Z,6.2
2022-12-28T03:05:49.543Z,6.6
2022-12-28T03:06:57.876Z,6.6
2022-12-28T03:08:06.212Z,6.6
2022-12-28T03:09:14.783Z,4
2022-12-28T03:10:23.147Z,4
2022-12-28T03:11:31.478Z,4
2022-12-28T03:12:40.022Z,4.9
2022-12-28T03:13:48.354Z,4.9
2022-12-28T03:14:56.699Z,4.9
2022-12-28T03:16:05.325Z,4.2
2022-12-28T03:17:13.585Z,4.2
2022-12-28T03:18:21.939Z,4.2
2022-12-28T03:19:30.483Z,3.7
2022-12-28T03:20:38.807Z,3.7
2022-12-28T03:21:47.145Z,3.7
2022-12-28T03:22:55.683Z,4.7
2022-12-28T03:24:04.009Z,4.7
2022-12-28T03:25:12.340Z,4.7
2022-12-28T03:26:20.875Z,4.9
2022-12-28T03:27:29.200Z,4.9
2022-12-28T03:28:37.551Z,4.9
2022-12-28T03:29:46.081Z,4.2
2022-12-28T03:30:54.417Z,4.2
2022-12-28T03:32:02.750Z,4.2
2022-12-28T03:33:11.301Z,4.5
2022-12-28T03:34:19.663Z,4.5
2022-12-28T03:35:27.968Z,4.5
2022-12-28T03:36:36.508Z,6.3
2022-12-28T03:37:44.846Z,6.3
2022-12-28T03:38:53.206Z,6.3
2022-12-28T03:40:01.758Z,6.7
2022-12-28T03:41:10.080Z,6.7
2022-12-28T03:42:18.387Z,6.7
2022-12-28T03:43:26.949Z,4.1
2022-12-28T03:44:35.301Z,4.1
2022-12-28T03:45:44.757Z,4.1
2022-12-28T03:46:52.166Z,6.5
2022-12-28T03:48:00.484Z,6.5
2022-12-28T03:49:08.839Z,6.5
2022-12-28T03:50:17.424Z,4.2
2022-12-28T03:51:25.727Z,4.2
2022-12-28T03:52:34.070Z,4.2
2022-12-28T03:53:42.618Z,4.3
2022-12-28T03:54:50.957Z,4.3
2022-12-28T03:55:59.298Z,4.3
2022-12-28T03:57:07.855Z,4.8
2022-12-28T03:58:16.188Z,4.8
2022-12-28T03:59:24.517Z,4.8
2022-12-28T04:00:33.044Z,5.4
2022-12-28T04:01:41.476Z,5.4
2022-12-28T04:02:49.867Z,5.4
2022-12-28T04:03:58.276Z,4.1
2022-12-28T04:05:06.624Z,4.1
2022-12-28T04:06:14.982Z,4.1
2022-12-28T04:07:23.511Z,4.6
2022-12-28T04:08:31.842Z,4.6
2022-12-28T04:09:40.183Z,4.6
2022-12-28T04:10:48.733Z,4.6
2022-12-28T04:11:57.059Z,4.6
2022-12-28T04:13:05.407Z,4.6
2022-12-28T04:14:13.965Z,5.1
2022-12-28T04:15:22.324Z,5.1
2022-12-28T04:16:30.659Z,5.1
2022-12-28T04:17:39.191Z,4.6
2022-12-28T04:18:47.516Z,4.6
2022-12-28T04:19:55.857Z,4.6
2022-12-28T04:21:04.431Z,3.3
2022-12-28T04:22:12.784Z,3.3
2022-12-28T04:23:21.085Z,3.3
2022-12-28T04:24:29.628Z,3.5
2022-12-28T04:25:37.986Z,3.5
2022-12-28T04:26:46.342Z,3.5
2022-12-28T04:27:54.881Z,4.6
2022-12-28T04:29:03.201Z,4.6
2022-12-28T04:30:11.561Z,4.6
2022-12-28T04:31:20.148Z,4
2022-12-28T04:32:28.447Z,4
2022-12-28T04:33:36.797Z,4
2022-12-28T04:34:48.602Z,5.2
2022-12-28T04:35:53.675Z,5.2
2022-12-28T04:37:02.050Z,5.2
2022-12-28T04:38:10.637Z,4.8
2022-12-28T04:39:18.938Z,4.8
2022-12-28T04:40:27.284Z,4.8
2022-12-28T04:41:35.868Z,3.7
2022-12-28T04:42:44.188Z,3.7
2022-12-28T04:43:52.508Z,3.7
2022-12-28T04:45:01.057Z,5.1
2022-12-28T04:46:09.464Z,5.1
2022-12-28T04:47:17.709Z,5.1
2022-12-28T04:48:26.264Z,6
2022-12-28T04:49:34.597Z,6
2022-12-28T04:50:42.936Z,6
2022-12-28T04:51:51.487Z,5.8
2022-12-28T04:52:59.831Z,5.8
2022-12-28T04:54:08.203Z,5.8
2022-12-28T04:55:31.661Z,5.7
2022-12-28T04:56:25.068Z,5.7
2022-12-28T04:57:33.399Z,5.7
2022-12-28T04:58:41.928Z,5.5
2022-12-28T04:59:50.300Z,5.5
2022-12-28T05:00:58.692Z,5.5
2022-12-28T05:02:07.236Z,6.5
2022-12-28T05:03:15.523Z,6.5
2022-12-28T05:04:23.859Z,6.5
2022-12-28T05:05:32.407Z,6.4
2022-12-28T05:06:40.753Z,6.4
2022-12-28T05:07:49.088Z,6.4
2022-12-28T05:08:57.621Z,5.3
2022-12-28T05:10:05.996Z,5.3
2022-12-28T05:11:14.324Z,5.3
2022-12-28T05:12:22.880Z,5.4
2022-12-28T05:13:31.230Z,5.4
2022-12-28T05:14:39.595Z,5.4
2022-12-28T05:15:48.174Z,6.3
2022-12-28T05:16:56.464Z,6.3
2022-12-28T05:18:04.825Z,6.3
2022-12-28T05:19:13.380Z,7.1
2022-12-28T05:20:21.717Z,7.1
2022-12-28T05:21:30.058Z,7.1
2022-12-28T05:22:40.995Z,4.4
2022-12-28T05:23:46.904Z,4.4
2022-12-28T05:24:55.237Z,4.4
2022-12-28T05:26:03.799Z,5.4
2022-12-28T05:27:12.107Z,5.4
2022-12-28T05:28:20.441Z,5.4
2022-12-28T05:29:28.997Z,5.7
2022-12-28T05:30:37.346Z,5.7
2022-12-28T05:31:45.746Z,5.7
2022-12-28T05:32:54.243Z,5.9
2022-12-28T05:34:02.571Z,5.9
2022-12-28T05:35:10.901Z,5.9
2022-12-28T05:36:19.442Z,5.9
2022-12-28T05:37:27.770Z,5.9
2022-12-28T05:38:36.101Z,5.9
2022-12-28T05:39:44.660Z,6.8
2022-12-28T05:40:52.990Z,6.8
2022-12-28T05:42:01.340Z,6.8
2022-12-28T05:43:09.831Z,4.5
2022-12-28T05:44:18.157Z,4.5
2022-12-28T05:45:26.483Z,4.5
2022-12-28T05:46:35.074Z,4.2
2022-12-28T05:47:43.341Z,4.2
2022-12-28T05:48:51.669Z,4.2
2022-12-28T05:50:00.353Z,5
2022-12-28T05:51:08.742Z,5
2022-12-28T05:52:17.051Z,5
2022-12-28T05:53:25.589Z,4.8
2022-12-28T05:54:33.920Z,4.8
2022-12-28T05:55:42.266Z,4.8
2022-12-28T05:56:50.825Z,4.6
2022-12-28T05:57:59.182Z,4.6
2022-12-28T05:59:07.509Z,4.6
2022-12-28T06:00:16.057Z,5.6
2022-12-28T06:01:24.387Z,5.6
2022-12-28T06:02:32.820Z,5.6
2022-12-28T06:03:41.379Z,5.6
2022-12-28T06:04:49.604Z,5.6
2022-12-28T06:05:57.930Z,5.6
2022-12-28T06:07:06.468Z,6.4
2022-12-28T06:08:18.231Z,6.4
2022-12-28T06:09:23.095Z,6.4
2022-12-28T06:10:31.655Z,4.8
2022-12-28T06:11:39.976Z,4.8
2022-12-28T06:12:48.304Z,4.8
2022-12-28T06:13:56.855Z,5.2
2022-12-28T06:15:05.180Z,5.2
2022-12-28T06:16:13.538Z,5.2
2022-12-28T06:17:22.038Z,5.4
2022-12-28T06:18:30.381Z,5.4
2022-12-28T06:19:38.705Z,5.4
2022-12-28T06:20:49.246Z,4.8
2022-12-28T06:21:55.557Z,4.8
2022-12-28T06:23:03.882Z,4.8
2022-12-28T06:24:12.408Z,5.6
2022-12-28T06:25:20.743Z,5.6
2022-12-28T06:26:29.056Z,5.6
2022-12-28T06:27:37.593Z,15.8
2022-12-28T06:28:45.917Z,15.8
2022-12-28T06:29:54.276Z,15.8
2022-12-28T06:31:02.762Z,30.4
2022-12-28T06:32:11.275Z,30.4
2022-12-28T06:33:19.601Z,30.4
2022-12-28T06:34:28.139Z,13.3
2022-12-28T06:35:36.472Z,13.3
2022-12-28T06:36:44.817Z,13.3
2022-12-28T06:37:53.332Z,31.4
2022-12-28T06:39:01.646Z,31.4
2022-12-28T06:40:09.972Z,31.4
2022-12-28T06:41:18.507Z,25.700001
2022-12-28T06:42:26.821Z,25.700001
2022-12-28T06:43:35.127Z,25.700001
2022-12-28T06:44:44.795Z,336.29998
2022-12-28T06:45:52.052Z,336.29998
2022-12-28T06:47:00.325Z,336.29998
2022-12-28T06:48:08.842Z,51
2022-12-28T06:49:17.186Z,51
2022-12-28T06:50:25.509Z,51
2022-12-28T06:51:34.044Z,16.200001
2022-12-28T06:52:42.362Z,16.200001
2022-12-28T06:53:50.691Z,16.200001
2022-12-28T06:54:59.218Z,12.8
2022-12-28T06:56:07.555Z,12.8
2022-12-28T06:57:15.882Z,12.8
2022-12-28T06:58:24.406Z,6.2
2022-12-28T06:59:32.732Z,6.2
2022-12-28T07:00:41.164Z,6.2
2022-12-28T07:01:49.913Z,13.3
2022-12-28T07:02:58.107Z,13.3
2022-12-28T07:04:06.384Z,13.3
2022-12-28T07:05:14.931Z,7.1
2022-12-28T07:06:23.255Z,7.1
2022-12-28T07:07:31.594Z,7.1
2022-12-28T07:08:40.116Z,11.3
2022-12-28T07:09:48.461Z,11.3
2022-12-28T07:10:56.790Z,11.3
2022-12-28T07:12:05.335Z,6.3
2022-12-28T07:13:13.623Z,6.3
2022-12-28T07:14:21.965Z,6.3
2022-12-28T07:15:30.508Z,5.7
2022-12-28T07:17:39.018Z,5.7
2022-12-28T07:18:47.518Z,18.9
2022-12-28T07:19:55.855Z,18.9
2022-12-28T07:21:04.180Z,18.9
2022-12-28T07:22:12.707Z,44.5
2022-12-28T07:23:21.021Z,44.5
2022-12-28T07:24:29.339Z,44.5
2022-12-28T07:25:37.872Z,51.799999
2022-12-28T07:26:46.320Z,51.799999
2022-12-28T07:27:54.694Z,51.799999
2022-12-28T07:29:03.333Z,37.900002
2022-12-28T07:30:11.692Z,37.900002
2022-12-28T07:31:20.107Z,37.900002
2022-12-28T07:32:28.668Z,33.599998
2022-12-28T07:33:37.056Z,33.599998
2022-12-28T07:34:45.430Z,33.599998
2022-12-28T07:35:54.007Z,55.799999
2022-12-28T07:37:02.348Z,55.799999
2022-12-28T07:38:10.870Z,55.799999
2022-12-28T07:39:19.236Z,55
2022-12-28T07:40:27.661Z,55
2022-12-28T07:41:35.922Z,55
2022-12-28T07:42:44.609Z,28.4
2022-12-28T07:43:53.004Z,28.4
2022-12-28T07:45:01.359Z,28.4
2022-12-28T07:46:09.922Z,9.8
2022-12-28T07:47:18.317Z,9.8
2022-12-28T07:48:26.778Z,9.8
2022-12-28T07:49:35.358Z,9.7
2022-12-28T07:50:43.723Z,9.7
2022-12-28T07:51:52.087Z,9.7
2022-12-28T07:53:00.637Z,6.7
2022-12-28T07:54:08.974Z,6.7
2022-12-28T07:55:17.331Z,6.7
2022-12-28T07:56:25.926Z,9.3
2022-12-28T07:57:33.168Z,9.3
2022-12-28T07:59:41.867Z,18.6
2022-12-28T08:00:50.204Z,18.6
2022-12-28T08:01:58.584Z,18.6
2022-12-28T08:03:07.143Z,6.7
2022-12-28T08:04:15.488Z,6.7
2022-12-28T08:05:23.860Z,6.7
2022-12-28T08:06:32.363Z,10
2022-12-28T08:07:40.676Z,10
2022-12-28T08:08:49.010Z,10
2022-12-28T08:09:57.597Z,5.5
2022-12-28T08:11:06.036Z,5.5
2022-12-28T08:12:14.355Z,5.5
2022-12-28T08:13:22.886Z,7
2022-12-28T08:14:31.213Z,7
2022-12-28T08:15:39.569Z,7
2022-12-28T08:16:48.078Z,5.6
2022-12-28T08:17:56.414Z,5.6
2022-12-28T08:19:04.741Z,5.6
2022-12-28T08:20:13.297Z,5
2022-12-28T08:21:21.764Z,5
2022-12-28T08:22:30.084Z,5
2022-12-28T08:23:38.814Z,7.2
2022-12-28T08:24:47.226Z,7.2
2022-12-28T08:25:55.562Z,7.2
2022-12-28T08:27:04.113Z,4
2022-12-28T08:28:12.486Z,4
2022-12-28T08:29:20.857Z,4
2022-12-28T08:30:29.402Z,6.2
2022-12-28T08:31:37.813Z,6.2
2022-12-28T08:32:46.185Z,6.2
2022-12-28T08:33:54.754Z,5.1
2022-12-28T08:35:03.109Z,5.1
2022-12-28T08:36:11.508Z,5.1
2022-12-28T08:37:20.057Z,5.5
2022-12-28T08:38:28.385Z,5.5
2022-12-28T08:39:36.732Z,5.5
2022-12-28T08:40:45.288Z,6.7
2022-12-28T08:41:53.599Z,6.7
2022-12-28T08:43:01.945Z,6.7
2022-12-28T08:44:10.474Z,4.3
2022-12-28T08:45:18.826Z,4.3
2022-12-28T08:46:27.293Z,4.3
2022-12-28T08:47:35.741Z,5.8
2022-12-28T08:48:44.069Z,5.8
2022-12-28T08:49:52.419Z,5.8
2022-12-28T08:51:00.967Z,9.2
2022-12-28T08:52:09.335Z,9.2
2022-12-28T08:53:17.701Z,9.2
2022-12-28T08:54:26.223Z,8.9
2022-12-28T08:55:34.577Z,8.9
2022-12-28T08:56:42.926Z,8.9
2022-12-28T08:57:51.483Z,5.7
2022-12-28T08:58:59.871Z,5.7
2022-12-28T09:00:08.259Z,5.7
2022-12-28T09:01:17.036Z,5.2
2022-12-28T09:02:25.767Z,5.2
2022-12-28T09:03:34.047Z,5.2
2022-12-28T09:04:42.535Z,5.3
2022-12-28T09:05:54.337Z,5.3
2022-12-28T09:06:59.352Z,5.3
2022-12-28T09:08:07.910Z,4.5
2022-12-28T09:09:16.297Z,4.5
2022-12-28T09:10:24.639Z,4.5
2022-12-28T09:11:33.181Z,4.7
2022-12-28T09:12:41.600Z,4.7
2022-12-28T09:13:49.992Z,4.7
2022-12-28T09:14:58.622Z,3.9
2022-12-28T09:16:07.017Z,3.9
2022-12-28T09:17:15.291Z,3.9
2022-12-28T09:18:23.879Z,3.4
2022-12-28T09:19:32.215Z,3.4
2022-12-28T09:20:44.473Z,3.4
2022-12-28T09:21:49.459Z,6.9
2022-12-28T09:22:57.557Z,6.9
2022-12-28T09:24:05.911Z,6.9
2022-12-28T09:25:14.511Z,3.9
2022-12-28T09:26:22.847Z,3.9
2022-12-28T09:27:31.216Z,3.9
2022-12-28T09:28:39.730Z,4.3
2022-12-28T09:29:48.103Z,4.3
2022-12-28T09:30:56.476Z,4.3
2022-12-28T09:32:05.052Z,4.3
2022-12-28T09:33:13.404Z,4.3
2022-12-28T09:34:37.979Z,4.3
2022-12-28T09:35:30.348Z,4.2
2022-12-28T09:36:38.717Z,4.2
2022-12-28T09:37:47.045Z,4.2
2022-12-28T09:38:55.622Z,4.4
2022-12-28T09:40:04.087Z,4.4
2022-12-28T09:41:12.450Z,4.4
2022-12-28T09:42:21.047Z,4.9
2022-12-28T09:43:29.386Z,4.9
2022-12-28T09:44:37.717Z,4.9
2022-12-28T09:45:46.265Z,5.1
2022-12-28T09:46:54.622Z,5.1
2022-12-28T09:48:02.918Z,5.1
2022-12-28T09:49:11.447Z,4.9
2022-12-28T09:50:19.795Z,4.9
2022-12-28T09:51:28.096Z,4.9
2022-12-28T09:52:36.635Z,5.5
2022-12-28T09:53:44.960Z,5.5
2022-12-28T09:54:53.298Z,5.5
2022-12-28T09:56:01.837Z,3.3
2022-12-28T09:57:10.192Z,3.3
2022-12-28T09:58:18.507Z,3.3
2022-12-28T09:59:27.053Z,5.6
2022-12-28T10:00:35.393Z,5.6
2022-12-28T10:01:43.774Z,5.6
2022-12-28T10:02:52.349Z,3.5
2022-12-28T10:04:00.574Z,3.5
2022-12-28T10:05:08.909Z,3.5
2022-12-28T10:06:17.461Z,4.8
2022-12-28T10:07:25.796Z,4.8
2022-12-28T10:08:34.137Z,4.8
2022-12-28T10:09:42.691Z,4.3
2022-12-28T10:10:51.036Z,4.3
2022-12-28T10:11:59.365Z,4.3
2022-12-28T10:13:16.551Z,3.4
2022-12-28T10:14:16.249Z,3.4
2022-12-28T10:15:24.635Z,3.4
2022-12-28T10:16:33.705Z,4.8
2022-12-28T10:17:41.989Z,4.8
2022-12-28T10:18:50.358Z,4.8
2022-12-28T10:19:58.928Z,3.3
2022-12-28T10:21:07.256Z,3.3
2022-12-28T10:22:15.584Z,3.3
2022-12-28T10:23:24.101Z,4.4
2022-12-28T10:24:33.114Z,4.4
2022-12-28T10:25:40.764Z,4.4
2022-12-28T10:26:49.306Z,3.8
2022-12-28T10:27:57.616Z,3.8
2022-12-28T10:29:05.961Z,3.8
2022-12-28T10:30:14.482Z,4.4
2022-12-28T10:31:22.902Z,4.4
2022-12-28T10:32:31.192Z,4.4
2022-12-28T10:33:39.745Z,2.7
2022-12-28T10:34:48.100Z,2.7
2022-12-28T10:35:56.447Z,2.7
2022-12-28T10:37:04.998Z,3.7
2022-12-28T10:38:13.465Z,3.7
2022-12-28T10:39:21.878Z,3.7
2022-12-28T10:40:30.446Z,3.1
2022-12-28T10:41:38.814Z,3.1
2022-12-28T10:42:47.165Z,3.1
2022-12-28T10:44:21.766Z,4.1
2022-12-28T10:45:04.107Z,4.1
2022-12-28T10:46:12.445Z,4.1
2022-12-28T10:47:21.023Z,5.5
2022-12-28T10:48:29.539Z,5.5
2022-12-28T10:49:38.113Z,5.5
2022-12-28T10:50:46.678Z,3.9
2022-12-28T10:51:55.016Z,3.9
2022-12-28T10:53:03.364Z,3.9
2022-12-28T10:54:11.922Z,4.5
2022-12-28T10:55:20.286Z,4.5
2022-12-28T10:56:28.709Z,4.5
2022-12-28T10:57:37.979Z,3.4
2022-12-28T10:58:45.751Z,3.4
2022-12-28T10:59:54.116Z,3.4
2022-12-28T11:01:02.901Z,4
2022-12-28T11:02:11.187Z,4
2022-12-28T11:03:19.446Z,4
2022-12-28T11:04:27.977Z,3.3
2022-12-28T11:05:36.368Z,3.3
2022-12-28T11:06:44.689Z,3.3
2022-12-28T11:07:53.377Z,3.5
2022-12-28T11:09:01.718Z,3.5
2022-12-28T11:10:10.084Z,3.5
2022-12-28T11:11:18.662Z,3.4
2022-12-28T11:12:27.001Z,3.4
2022-12-28T11:13:35.356Z,3.4
2022-12-28T11:14:43.908Z,3.8
2022-12-28T11:15:52.241Z,3.8
2022-12-28T11:17:00.612Z,3.8
2022-12-28T11:18:09.213Z,4.9
2022-12-28T11:19:17.580Z,4.9
2022-12-28T11:20:25.893Z,4.9
2022-12-28T11:21:34.405Z,3.1
2022-12-28T11:22:42.728Z,3.1
2022-12-28T11:23:51.067Z,3.1
2022-12-28T11:24:59.629Z,3.6
2022-12-28T11:26:08.109Z,3.6
2022-12-28T11:27:16.477Z,3.6
2022-12-28T11:28:25.029Z,3.9
2022-12-28T11:29:33.431Z,3.9
2022-12-28T11:30:41.796Z,3.9
2022-12-28T11:31:50.426Z,3.9
2022-12-28T11:32:58.701Z,3.9
2022-12-28T11:34:07.015Z,3.9
2022-12-28T11:35:15.591Z,3.6
2022-12-28T11:36:23.937Z,3.6
2022-12-28T11:37:32.305Z,3.6
2022-12-28T11:38:40.881Z,3.4
2022-12-28T11:39:49.263Z,3.4
2022-12-28T11:40:57.606Z,3.4
2022-12-28T11:43:14.513Z,4
2022-12-28T11:44:22.886Z,4
2022-12-28T11:45:31.466Z,4.7
2022-12-28T11:46:39.851Z,4.7
2022-12-28T11:47:48.184Z,4.7
2022-12-28T11:48:56.804Z,3.9
2022-12-28T11:50:05.129Z,3.9
2022-12-28T11:51:13.473Z,3.9
2022-12-28T11:52:22.029Z,5.3
2022-12-28T11:53:30.362Z,5.3
2022-12-28T11:54:38.694Z,5.3
2022-12-28T11:55:47.247Z,4.6
2022-12-28T11:56:55.701Z,4.6
2022-12-28T11:58:04.054Z,4.6
2022-12-28T11:59:12.659Z,3.6
2022-12-28T12:00:22.938Z,3.6
2022-12-28T12:01:29.717Z,3.6
2022-12-28T12:02:38.194Z,4.5
2022-12-28T12:03:46.835Z,4.5
2022-12-28T12:04:55.134Z,4.5
2022-12-28T12:06:03.657Z,4
2022-12-28T12:07:12.007Z,4
2022-12-28T12:08:20.425Z,4
2022-12-28T12:09:29.010Z,3.5
2022-12-28T12:10:37.465Z,3.5
2022-12-28T12:11:45.915Z,3.5
2022-12-28T12:12:54.510Z,3.9
2022-12-28T12:14:02.921Z,3.9
2022-12-28T12:15:11.291Z,3.9
2022-12-28T12:16:20.111Z,3.4
2022-12-28T12:17:28.396Z,3.4
2022-12-28T12:18:36.801Z,3.4
2022-12-28T12:19:45.364Z,4.9
2022-12-28T12:20:53.803Z,4.9
2022-12-28T12:22:02.120Z,4.9
2022-12-28T12:23:10.689Z,4.3
2022-12-28T12:24:19.081Z,4.3
2022-12-28T12:25:27.421Z,4.3
2022-12-28T12:26:35.977Z,6.4
2022-12-28T12:27:44.361Z,6.4
2022-12-28T12:28:52.763Z,6.4
2022-12-28T12:30:01.324Z,7.3
2022-12-28T12:31:09.709Z,7.3
2022-12-28T12:32:18.008Z,7.3
2022-12-28T12:33:26.794Z,7
2022-12-28T12:34:35.122Z,7
2022-12-28T12:35:43.545Z,7
2022-12-28T12:36:52.197Z,4
2022-12-28T12:38:00.585Z,4
2022-12-28T12:39:08.909Z,4
2022-12-28T12:40:17.493Z,3.3
2022-12-28T12:41:25.865Z,3.3
2022-12-28T12:42:34.227Z,3.3
2022-12-28T12:43:42.972Z,4.9
2022-12-28T12:44:51.357Z,4.9
2022-12-28T12:45:59.718Z,4.9
2022-12-28T12:47:08.266Z,4.7
2022-12-28T12:48:16.620Z,4.7
2022-12-28T12:49:24.979Z,4.7
2022-12-28T12:50:33.553Z,2
2022-12-28T12:51:41.909Z,2
2022-12-28T12:52:50.305Z,2
2022-12-28T12:53:58.838Z,4.5
2022-12-28T12:55:07.219Z,4.5
2022-12-28T12:56:15.590Z,4.5
2022-12-28T12:57:24.112Z,2.6
2022-12-28T12:58:32.465Z,2.6
2022-12-28T12:59:40.825Z,2.6
2022-12-28T13:00:49.389Z,4.5
2022-12-28T13:01:57.814Z,4.5
2022-12-28T13:03:06.189Z,4.5
2022-12-28T13:04:14.694Z,5.7
2022-12-28T13:05:23.034Z,5.7
2022-12-28T13:06:31.386Z,5.7
2022-12-28T13:07:39.930Z,4.1
2022-12-28T13:08:48.301Z,4.1
2022-12-28T13:09:56.634Z,4.1
2022-12-28T13:11:05.178Z,4.1
2022-12-28T13:12:13.535Z,4.1
2022-12-28T13:13:21.860Z,4.1
2022-12-28T13:14:30.446Z,3.2
2022-12-28T13:15:38.828Z,3.2
2022-12-28T13:16:47.140Z,3.2
2022-12-28T13:18:05.007Z,6.2
2022-12-28T13:19:04.083Z,6.2
2022-12-28T13:20:12.448Z,6.2
2022-12-28T13:21:21.003Z,4.2
2022-12-28T13:22:29.342Z,4.2
2022-12-28T13:23:37.670Z,4.2
2022-12-28T13:24:46.339Z,4.3
2022-12-28T13:25:54.668Z,4.3
2022-12-28T13:27:06.330Z,4.3
2022-12-28T13:28:11.584Z,4.2
2022-12-28T13:29:19.934Z,4.2
2022-12-28T13:30:28.296Z,4.2
2022-12-28T13:31:36.835Z,4.8
2022-12-28T13:32:45.186Z,4.8
2022-12-28T13:33:53.539Z,4.8
2022-12-28T13:35:02.105Z,3.5
2022-12-28T13:36:10.459Z,3.5
2022-12-28T13:37:18.843Z,3.5
2022-12-28T13:38:27.395Z,2.8
2022-12-28T13:39:41.738Z,2.8
2022-12-28T13:40:44.145Z,2.8
2022-12-28T13:41:52.702Z,3.5
2022-12-28T13:43:01.054Z,3.5
2022-12-28T13:44:09.403Z,3.5
2022-12-28T13:45:17.972Z,3.5
2022-12-28T13:46:26.394Z,3.5
2022-12-28T13:47:34.672Z,3.5
2022-12-28T13:48:43.247Z,4.3
2022-12-28T13:49:51.605Z,4.3
2022-12-28T13:50:59.972Z,4.3
2022-12-28T13:52:08.550Z,5.3
2022-12-28T13:53:16.964Z,5.3
2022-12-28T13:54:25.337Z,5.3
2022-12-28T13:55:33.886Z,4.7
2022-12-28T13:56:42.243Z,4.7
2022-12-28T13:57:55.872Z,4.7
2022-12-28T13:58:59.171Z,4
2022-12-28T14:00:07.491Z,4
2022-12-28T14:01:15.911Z,4
2022-12-28T14:02:24.485Z,3.2
2022-12-28T14:03:37.503Z,3.2
2022-12-28T14:04:56.471Z,3.2
2022-12-28T14:05:49.673Z,3.1
2022-12-28T14:06:57.905Z,3.1
2022-12-28T14:08:06.226Z,3.1
2022-12-28T14:09:14.758Z,4.9
2022-12-28T14:10:23.117Z,4.9
2022-12-28T14:11:31.652Z,4.9
2022-12-28T14:12:40.291Z,4
2022-12-28T14:13:48.618Z,4
2022-12-28T14:14:56.997Z,4
2022-12-28T14:16:05.601Z,3.9
2022-12-28T14:17:13.897Z,3.9
2022-12-28T14:18:22.312Z,3.9
2022-12-28T14:19:30.867Z,3.8
2022-12-28T14:20:39.240Z,3.8
2022-12-28T14:21:47.591Z,3.8
2022-12-28T14:22:56.151Z,4.8
2022-12-28T14:24:04.549Z,4.8
2022-12-28T14:25:12.918Z,4.8
2022-12-28T14:26:21.473Z,3.4
2022-12-28T14:27:29.810Z,3.4
2022-12-28T14:28:38.175Z,3.4
2022-12-28T14:29:46.699Z,3.6
2022-12-28T14:30:55.113Z,3.6
2022-12-28T15:03:25.943Z,0
2022-12-28T15:04:34.212Z,0
2022-12-28T15:05:42.574Z,0
2022-12-28T15:06:51.091Z,6.4
2022-12-28T15:07:59.424Z,6.4
2022-12-28T15:09:07.763Z,6.4
2022-12-28T15:10:16.315Z,4.7
2022-12-28T15:11:24.649Z,4.7
2022-12-28T15:12:32.970Z,4.7
2022-12-28T15:13:41.516Z,6.8
2022-12-28T15:14:49.871Z,6.8
2022-12-28T15:15:58.268Z,6.8
2022-12-28T15:17:06.831Z,3.7
2022-12-28T15:18:15.021Z,3.7
2022-12-28T15:19:23.362Z,3.7
2022-12-28T15:20:31.859Z,7.1
2022-12-28T15:21:40.167Z,7.1
2022-12-28T15:22:48.515Z,7.1
2022-12-28T15:23:57.036Z,9
2022-12-28T15:25:05.396Z,9
2022-12-28T15:26:13.720Z,9
2022-12-28T15:27:22.253Z,8.4
2022-12-28T15:28:30.586Z,8.4
2022-12-28T15:30:04.101Z,8.4
2022-12-28T15:30:47.430Z,8.5
2022-12-28T15:31:55.877Z,8.5
2022-12-28T15:33:04.607Z,8.5
2022-12-28T15:34:13.128Z,3.9
2022-12-28T15:35:21.506Z,3.9
2022-12-28T15:36:29.813Z,3.9
2022-12-28T15:37:38.338Z,3.2
2022-12-28T15:38:47.009Z,3.2
2022-12-28T15:39:55.364Z,3.2
2022-12-28T15:41:04.119Z,4.8
2022-12-28T15:42:12.513Z,4.8
2022-12-28T15:43:20.845Z,4.8
2022-12-28T15:44:29.413Z,4.7
2022-12-28T15:45:37.773Z,4.7
2022-12-28T15:46:46.121Z,4.7
2022-12-28T15:47:54.751Z,6.6
2022-12-28T15:49:03.092Z,6.6
2022-12-28T15:50:11.682Z,6.6
2022-12-28T15:51:20.451Z,3.8
2022-12-28T15:52:28.874Z,3.8
2022-12-28T15:53:37.227Z,3.8
2022-12-28T15:54:47.428Z,3.5
2022-12-28T15:55:54.134Z,3.5
2022-12-28T15:57:02.760Z,3.5
2022-12-28T15:58:11.330Z,4
2022-12-28T15:59:19.628Z,4
2022-12-28T16:00:27.970Z,4
2022-12-28T16:01:36.634Z,3.6
2022-12-28T16:02:45.347Z,3.6
2022-12-28T16:03:53.558Z,3.6
2022-12-28T16:05:02.373Z,4.6
2022-12-28T16:06:11.430Z,4.6
2022-12-28T16:07:19.776Z,4.6
2022-12-28T16:08:28.328Z,6
2022-12-28T16:09:36.661Z,6
2022-12-28T16:10:45.030Z,6
2022-12-28T16:11:55.350Z,6.6
2022-12-28T16:13:02.333Z,6.6
2022-12-28T16:14:10.790Z,6.6
2022-12-28T16:15:19.351Z,13.7
2022-12-28T16:16:28.084Z,13.7
2022-12-28T16:17:41.811Z,13.7